createdAt,value
2022-12-11T00:02:04.827Z,72.79
2022-12-11T00:04:36.867Z,72.83
2022-12-11T00:07:06.716Z,72.72
2022-12-11T00:09:35.164Z,72.73
2022-12-11T00:12:05.417Z,72.63
2022-12-11T00:14:34.022Z,72.66
2022-12-11T00:17:03.573Z,72.61
2022-12-11T00:19:32.948Z,72.51
2022-12-11T00:22:06.456Z,72.54
2022-12-11T00:24:34.708Z,72.46
2022-12-11T00:27:03.171Z,72.59
2022-12-11T00:29:31.815Z,72.69
2022-12-11T00:32:00.011Z,72.51
2022-12-11T00:34:28.341Z,72.52
2022-12-11T00:36:56.732Z,72.40
2022-12-11T00:39:25.433Z,72.46
2022-12-11T00:41:57.150Z,72.45
2022-12-11T00:44:25.364Z,72.44
2022-12-11T00:46:53.815Z,72.25
2022-12-11T00:49:24.539Z,72.36
2022-12-11T00:51:52.868Z,72.33
2022-12-11T00:54:22.324Z,72.48
2022-12-11T00:56:51.283Z,72.40
2022-12-11T00:59:19.721Z,72.37
2022-12-11T01:01:47.936Z,72.42
2022-12-11T01:04:16.081Z,72.31
2022-12-11T01:06:44.704Z,72.19
2022-12-11T01:09:32.017Z,72.31
2022-12-11T01:12:00.512Z,72.42
2022-12-11T01:14:28.654Z,72.36
2022-12-11T01:16:56.756Z,72.35
2022-12-11T01:19:25.602Z,72.37
2022-12-11T01:21:53.697Z,72.32
2022-12-11T01:24:21.933Z,72.27
2022-12-11T01:26:50.246Z,72.28
2022-12-11T01:29:18.315Z,72.34
2022-12-11T01:31:46.403Z,72.34
2022-12-11T01:34:14.936Z,72.13
2022-12-11T01:36:43.049Z,72.31
2022-12-11T01:39:11.463Z,72.26
2022-12-11T01:41:40.258Z,72.22
2022-12-11T01:44:31.663Z,72.22
2022-12-11T01:47:01.109Z,72.10
2022-12-11T01:49:29.696Z,72.24
2022-12-11T01:52:07.759Z,72.21
2022-12-11T01:54:36.103Z,72.22
2022-12-11T01:57:09.467Z,72.14
2022-12-11T01:59:41.323Z,72.26
2022-12-11T02:02:16.028Z,72.31
2022-12-11T02:04:46.329Z,72.25
2022-12-11T02:07:15.416Z,72.24
2022-12-11T02:09:46.381Z,72.18
2022-12-11T02:12:26.851Z,72.24
2022-12-11T02:15:13.542Z,72.11
2022-12-11T02:18:09.278Z,72.23
2022-12-11T02:20:46.694Z,72.18
2022-12-11T02:23:17.877Z,72.13
2022-12-11T02:25:56.402Z,72.13
2022-12-11T02:28:29.686Z,72.20
2022-12-11T02:31:04.564Z,72.09
2022-12-11T02:33:50.426Z,72.08
2022-12-11T02:36:21.528Z,72.11
2022-12-11T02:38:53.635Z,72.06
2022-12-11T02:41:23.720Z,72.10
2022-12-11T02:43:53.956Z,72.16
2022-12-11T02:46:25.027Z,72.10
2022-12-11T02:48:55.059Z,72.09
2022-12-11T02:51:28.911Z,72.08
2022-12-11T02:53:59.451Z,72.12
2022-12-11T02:56:40.596Z,71.99
2022-12-11T02:59:19.785Z,71.73
2022-12-11T03:01:48.100Z,71.75
2022-12-11T03:04:16.558Z,72.00
2022-12-11T03:06:51.343Z,71.84
2022-12-11T03:09:20.177Z,71.80
2022-12-11T03:11:48.255Z,71.76
2022-12-11T03:14:16.474Z,71.87
2022-12-11T03:16:57.926Z,71.99
2022-12-11T03:19:36.448Z,72.10
2022-12-11T03:22:17.089Z,72.07
2022-12-11T03:24:57.989Z,71.91
2022-12-11T03:27:28.994Z,72.10
2022-12-11T03:30:06.129Z,72.14
2022-12-11T03:32:50.521Z,71.93
2022-12-11T03:35:37.555Z,72.02
2022-12-11T03:38:11.109Z,72.04
2022-12-11T03:40:41.791Z,72.23
2022-12-11T03:43:11.542Z,72.19
2022-12-11T03:45:41.502Z,72.36
2022-12-11T03:48:10.259Z,72.26
2022-12-11T03:50:40.074Z,72.32
2022-12-11T03:53:08.944Z,72.45
2022-12-11T03:55:40.186Z,72.00
2022-12-11T03:58:08.559Z,72.26
2022-12-11T04:00:37.195Z,72.27
2022-12-11T04:03:14.846Z,72.38
2022-12-11T04:05:49.635Z,72.44
2022-12-11T04:08:23.067Z,72.52
2022-12-11T04:11:12.253Z,72.20
2022-12-11T04:13:41.709Z,71.78
2022-12-11T04:16:10.070Z,72.40
2022-12-11T04:18:57.092Z,72.62
2022-12-11T04:21:43.823Z,72.62
2022-12-11T04:24:15.381Z,72.63
2022-12-11T04:26:45.603Z,72.66
2022-12-11T04:29:14.192Z,72.48
2022-12-11T04:31:42.651Z,72.72
2022-12-11T04:34:10.828Z,72.86
2022-12-11T04:36:38.933Z,72.59
2022-12-11T04:39:07.115Z,72.84
2022-12-11T04:41:37.287Z,72.78
2022-12-11T04:44:05.747Z,72.87
2022-12-11T04:46:34.492Z,72.93
2022-12-11T04:49:02.728Z,72.90
2022-12-11T04:51:30.914Z,72.91
2022-12-11T04:54:00.378Z,72.70
2022-12-11T04:56:28.559Z,72.93
2022-12-11T04:58:56.632Z,72.99
2022-12-11T05:01:24.796Z,72.86
2022-12-11T05:03:53.025Z,72.80
2022-12-11T05:06:21.152Z,72.66
2022-12-11T05:08:49.280Z,72.71
2022-12-11T05:11:18.262Z,72.88
2022-12-11T05:13:46.477Z,72.77
2022-12-11T05:16:16.516Z,72.73
2022-12-11T05:18:45.146Z,72.68
2022-12-11T05:21:15.317Z,72.85
2022-12-11T05:23:43.518Z,72.82
2022-12-11T05:26:15.262Z,72.69
2022-12-11T05:28:43.705Z,72.64
2022-12-11T05:31:15.098Z,72.77
2022-12-11T05:33:45.332Z,72.54
2022-12-11T05:36:33.630Z,72.51
2022-12-11T05:39:04.063Z,72.64
2022-12-11T05:41:34.080Z,72.74
2022-12-11T05:44:02.162Z,72.51
2022-12-11T05:46:31.408Z,72.50
2022-12-11T05:49:01.925Z,72.34
2022-12-11T05:51:30.898Z,72.46
2022-12-11T05:53:59.132Z,72.53
2022-12-11T05:56:33.421Z,72.51
2022-12-11T05:59:03.482Z,72.66
2022-12-11T06:01:33.245Z,72.60
2022-12-11T06:04:02.340Z,72.70
2022-12-11T06:06:30.673Z,72.76
2022-12-11T06:09:00.771Z,72.73
2022-12-11T06:11:33.485Z,72.57
2022-12-11T06:14:03.417Z,72.64
2022-12-11T06:16:32.349Z,72.71
2022-12-11T06:19:00.618Z,72.66
2022-12-11T06:21:31.384Z,72.62
2022-12-11T06:24:03.119Z,72.81
2022-12-11T06:26:32.328Z,72.75
2022-12-11T06:29:00.544Z,72.60
2022-12-11T06:31:28.920Z,72.54
2022-12-11T06:33:58.244Z,72.64
2022-12-11T06:36:28.708Z,72.48
2022-12-11T06:38:59.144Z,72.50
2022-12-11T06:41:27.585Z,72.35
2022-12-11T06:43:55.689Z,72.25
2022-12-11T06:46:27.846Z,72.25
2022-12-11T06:48:56.122Z,72.36
2022-12-11T06:51:24.674Z,72.27
2022-12-11T06:53:56.351Z,72.36
2022-12-11T06:56:28.975Z,72.36
2022-12-11T06:59:02.891Z,72.22
2022-12-11T07:01:34.096Z,72.25
2022-12-11T07:04:02.559Z,71.99
2022-12-11T07:06:34.747Z,71.92
2022-12-11T07:09:07.196Z,72.08
2022-12-11T07:11:36.586Z,72.12
2022-12-11T07:14:05.496Z,72.16
2022-12-11T07:16:37.885Z,72.29
2022-12-11T07:19:06.737Z,72.12
2022-12-11T07:21:34.882Z,72.34
2022-12-11T07:24:03.692Z,72.45
2022-12-11T07:26:32.986Z,72.44
2022-12-11T07:29:04.493Z,72.31
2022-12-11T07:31:33.200Z,72.37
2022-12-11T07:34:04.478Z,72.50
2022-12-11T07:36:35.151Z,72.32
2022-12-11T07:39:05.127Z,72.54
2022-12-11T07:41:34.292Z,72.49
2022-12-11T07:44:03.921Z,72.56
2022-12-11T07:46:34.104Z,72.61
2022-12-11T07:49:02.972Z,72.66
2022-12-11T07:51:36.419Z,72.65
2022-12-11T07:54:10.969Z,72.76
2022-12-11T07:56:43.690Z,72.70
2022-12-11T07:59:12.649Z,72.73
2022-12-11T08:01:42.252Z,72.78
2022-12-11T08:04:15.920Z,72.63
2022-12-11T08:06:44.447Z,72.70
2022-12-11T08:09:20.944Z,72.65
2022-12-11T08:11:50.870Z,72.49
2022-12-11T08:14:20.013Z,72.63
2022-12-11T08:16:49.100Z,72.73
2022-12-11T08:19:18.057Z,73.16
2022-12-11T08:21:46.995Z,72.63
2022-12-11T08:24:16.572Z,72.56
2022-12-11T08:26:44.718Z,72.54
2022-12-11T08:29:12.993Z,72.57
2022-12-11T08:31:42.204Z,72.90
2022-12-11T08:34:13.958Z,73.31
2022-12-11T08:36:42.227Z,73.42
2022-12-11T08:39:10.351Z,73.50
2022-12-11T08:41:38.635Z,73.52
2022-12-11T08:44:16.253Z,73.41
2022-12-11T08:46:47.147Z,73.22
2022-12-11T08:49:15.430Z,73.04
2022-12-11T08:51:44.082Z,72.97
2022-12-11T08:54:16.002Z,72.87
2022-12-11T08:56:44.222Z,72.86
2022-12-11T08:59:12.372Z,72.86
2022-12-11T09:01:40.647Z,72.77
2022-12-11T09:04:09.063Z,72.92
2022-12-11T09:06:37.155Z,73.23
2022-12-11T09:09:05.675Z,73.18
2022-12-11T09:11:36.454Z,73.61
2022-12-11T09:14:07.902Z,73.82
2022-12-11T09:16:40.612Z,73.78
2022-12-11T09:19:16.592Z,73.44
2022-12-11T09:21:45.379Z,73.34
2022-12-11T09:24:14.320Z,73.27
2022-12-11T09:26:42.653Z,73.21
2022-12-11T09:29:12.434Z,73.26
2022-12-11T09:31:40.926Z,73.22
2022-12-11T09:34:12.633Z,73.55
2022-12-11T09:36:42.203Z,73.94
2022-12-11T09:39:12.946Z,74.17
2022-12-11T09:42:20.169Z,74.45
2022-12-11T09:44:55.311Z,74.86
2022-12-11T09:47:26.217Z,74.41
2022-12-11T09:50:09.718Z,74.34
2022-12-11T09:53:04.689Z,74.57
2022-12-11T09:55:46.075Z,74.85
2022-12-11T09:58:18.852Z,75.15
2022-12-11T10:00:52.743Z,75.21
2022-12-11T10:03:46.616Z,75.16
2022-12-11T10:06:38.543Z,74.88
2022-12-11T10:09:25.611Z,74.73
2022-12-11T10:12:02.493Z,74.76
2022-12-11T10:14:33.432Z,74.78
2022-12-11T10:17:12.646Z,74.78
2022-12-11T10:19:42.517Z,74.94
2022-12-11T10:22:33.347Z,74.90
2022-12-11T10:25:23.553Z,75.17
2022-12-11T10:27:52.497Z,75.11
2022-12-11T10:30:21.127Z,75.14
2022-12-11T10:33:11.482Z,75.11
2022-12-11T10:35:45.862Z,74.67
2022-12-11T10:38:31.462Z,74.89
2022-12-11T10:41:06.278Z,74.82
2022-12-11T10:43:41.736Z,74.78
2022-12-11T10:46:23.427Z,74.82
2022-12-11T10:48:53.762Z,74.96
2022-12-11T10:51:25.225Z,74.61
2022-12-11T10:54:00.369Z,75.13
2022-12-11T10:56:34.271Z,75.02
2022-12-11T10:59:02.927Z,75.08
2022-12-11T11:01:33.138Z,74.70
2022-12-11T11:04:06.800Z,74.80
2022-12-11T11:06:34.982Z,74.99
2022-12-11T11:09:04.339Z,75.09
2022-12-11T11:11:39.626Z,75.06
2022-12-11T11:14:17.891Z,74.85
2022-12-11T11:16:48.581Z,75.18
2022-12-11T11:19:27.052Z,75.18
2022-12-11T11:22:02.290Z,75.24
2022-12-11T11:24:39.865Z,75.06
2022-12-11T11:27:30.221Z,75.43
2022-12-11T11:30:03.405Z,75.41
2022-12-11T11:32:36.520Z,75.50
2022-12-11T11:35:29.258Z,75.57
2022-12-11T11:38:18.791Z,75.45
2022-12-11T11:41:04.793Z,75.55
2022-12-11T11:43:40.819Z,75.46
2022-12-11T11:46:18.586Z,75.33
2022-12-11T11:48:53.985Z,75.57
2022-12-11T11:51:34.692Z,75.42
2022-12-11T11:54:30.213Z,75.55
2022-12-11T11:56:59.901Z,75.42
2022-12-11T11:59:45.677Z,75.84
2022-12-11T12:02:16.883Z,75.58
2022-12-11T12:04:46.811Z,75.63
2022-12-11T12:07:18.349Z,75.73
2022-12-11T12:09:54.376Z,75.59
2022-12-11T12:12:29.756Z,75.94
2022-12-11T12:15:41.567Z,75.76
2022-12-11T12:18:20.310Z,75.53
2022-12-11T12:21:03.068Z,75.74
2022-12-11T12:23:56.189Z,75.84
2022-12-11T12:26:31.224Z,75.44
2022-12-11T12:29:16.820Z,75.26
2022-12-11T12:31:59.209Z,75.36
2022-12-11T12:34:38.150Z,75.49
2022-12-11T12:37:06.212Z,75.62
2022-12-11T12:40:11.461Z,75.89
2022-12-11T12:43:06.547Z,75.46
2022-12-11T12:46:08.231Z,75.71
2022-12-11T12:48:36.593Z,75.66
2022-12-11T12:51:05.425Z,75.60
2022-12-11T12:53:36.969Z,75.43
2022-12-11T12:56:06.541Z,75.38
2022-12-11T12:58:34.945Z,75.54
2022-12-11T13:01:17.992Z,75.50
2022-12-11T13:04:08.649Z,75.45
2022-12-11T13:06:47.453Z,75.65
2022-12-11T13:09:23.669Z,75.33
2022-12-11T13:11:57.825Z,75.40
2022-12-11T13:14:32.702Z,75.89
2022-12-11T13:17:21.111Z,75.75
2022-12-11T13:19:53.094Z,75.59
2022-12-11T13:22:24.010Z,76.00
2022-12-11T13:24:52.165Z,75.92
2022-12-11T13:27:43.030Z,75.74
2022-12-11T13:30:14.296Z,75.44
2022-12-11T13:33:00.926Z,75.15
2022-12-11T13:35:30.854Z,75.11
2022-12-11T13:38:07.307Z,74.86
2022-12-11T13:40:40.218Z,74.81
2022-12-11T13:43:19.080Z,74.76
2022-12-11T13:45:51.040Z,74.62
2022-12-11T13:48:25.000Z,74.35
2022-12-11T13:50:54.138Z,74.11
2022-12-11T13:53:24.022Z,74.42
2022-12-11T13:56:01.774Z,74.23
2022-12-11T13:58:34.037Z,73.84
2022-12-11T14:01:08.301Z,73.94
2022-12-11T14:03:40.216Z,74.09
2022-12-11T14:06:18.220Z,73.67
2022-12-11T14:08:52.091Z,73.86
2022-12-11T14:11:55.038Z,74.05
2022-12-11T14:14:49.952Z,74.34
2022-12-11T14:17:30.648Z,74.43
2022-12-11T14:20:03.162Z,74.22
2022-12-11T14:22:31.438Z,74.77
2022-12-11T14:25:03.789Z,74.66
2022-12-11T14:27:31.958Z,75.06
2022-12-11T14:30:11.455Z,74.81
2022-12-11T14:32:45.154Z,75.11
2022-12-11T14:35:43.858Z,75.27
2022-12-11T14:38:37.560Z,75.05
2022-12-11T14:41:14.379Z,75.13
2022-12-11T14:48:22.328Z,75.06
2022-12-11T14:50:58.053Z,74.86
2022-12-11T14:53:28.026Z,74.74
2022-12-11T14:55:57.978Z,75.12
2022-12-11T14:58:28.102Z,74.62
2022-12-11T15:01:00.740Z,75.11
2022-12-11T15:03:35.213Z,74.71
2022-12-11T15:06:26.182Z,74.89
2022-12-11T15:08:55.238Z,75.01
2022-12-11T15:11:30.431Z,74.96
2022-12-11T15:14:03.138Z,74.68
2022-12-11T15:16:38.626Z,74.39
2022-12-11T15:19:07.055Z,74.71
2022-12-11T15:21:36.999Z,74.59
2022-12-11T15:24:07.176Z,74.69
2022-12-11T15:26:57.377Z,74.46
2022-12-11T15:34:27.070Z,74.71
2022-12-11T15:37:03.320Z,75.13
2022-12-11T15:40:06.808Z,75.17
2022-12-11T15:42:41.882Z,75.38
2022-12-11T15:45:23.139Z,75.43
2022-12-11T15:47:52.891Z,75.66
2022-12-11T15:50:28.529Z,75.85
2022-12-11T15:53:00.494Z,75.67
2022-12-11T15:55:36.137Z,75.65
2022-12-11T15:58:17.698Z,75.65
2022-12-11T16:00:55.374Z,75.78
2022-12-11T16:04:01.814Z,75.94
2022-12-11T16:06:34.430Z,75.72
2022-12-11T16:09:34.896Z,75.62
2022-12-11T16:12:06.792Z,75.74
2022-12-11T16:14:38.338Z,75.59
2022-12-11T16:17:26.160Z,75.10
2022-12-11T16:20:08.178Z,75.17
2022-12-11T16:22:47.338Z,75.17
2022-12-11T16:25:20.921Z,75.62
2022-12-11T16:30:49.939Z,75.60
2022-12-11T16:33:18.642Z,75.13
2022-12-11T16:35:49.795Z,75.60
2022-12-11T16:38:43.048Z,75.54
2022-12-11T16:43:57.627Z,76.05
2022-12-11T16:46:32.510Z,75.85
2022-12-11T16:49:00.773Z,76.25
2022-12-11T16:51:29.031Z,76.47
2022-12-11T16:53:57.261Z,76.20
2022-12-11T16:56:26.784Z,76.57
2022-12-11T16:58:55.248Z,76.96
2022-12-11T17:01:23.536Z,76.73
2022-12-11T17:03:53.444Z,76.67
2022-12-11T17:06:21.979Z,76.80
2022-12-11T17:08:55.027Z,76.36
2022-12-11T17:11:27.874Z,76.33
2022-12-11T17:13:59.497Z,75.99
2022-12-11T17:16:34.275Z,75.91
2022-12-11T17:19:03.682Z,75.95
2022-12-11T17:21:34.141Z,75.58
2022-12-11T17:24:02.382Z,75.60
2022-12-11T17:26:31.088Z,75.52
2022-12-11T17:29:01.386Z,75.04
2022-12-11T17:31:29.899Z,75.01
2022-12-11T17:34:03.411Z,74.97
2022-12-11T17:36:31.882Z,74.86
2022-12-11T17:39:00.032Z,74.84
2022-12-11T17:41:28.183Z,74.90
2022-12-11T17:44:01.125Z,74.83
2022-12-11T17:46:29.428Z,74.73
2022-12-11T17:49:00.271Z,74.43
2022-12-11T17:51:28.703Z,74.55
2022-12-11T17:53:57.392Z,74.68
2022-12-11T17:56:26.203Z,74.80
2022-12-11T17:58:57.072Z,74.70
2022-12-11T18:01:25.486Z,74.67
2022-12-11T18:03:53.925Z,74.48
2022-12-11T18:06:27.161Z,74.74
2022-12-11T18:09:30.042Z,74.74
2022-12-11T18:11:59.060Z,74.52
2022-12-11T18:14:59.186Z,74.71
2022-12-11T18:17:38.649Z,74.80
2022-12-11T18:20:24.676Z,74.90
2022-12-11T18:22:53.409Z,74.77
2022-12-11T18:25:21.897Z,74.72
2022-12-11T18:27:50.857Z,74.95
2022-12-11T18:30:19.752Z,74.51
2022-12-11T18:35:33.237Z,74.48
2022-12-11T18:38:16.665Z,74.61
2022-12-11T18:40:48.233Z,74.50
2022-12-11T18:43:16.607Z,74.66
2022-12-11T18:45:45.840Z,74.59
2022-12-11T18:48:15.092Z,74.67
2022-12-11T18:50:51.594Z,74.42
2022-12-11T18:53:19.949Z,74.52
2022-12-11T18:55:49.617Z,74.80
2022-12-11T18:58:19.774Z,74.77
2022-12-11T19:00:47.968Z,74.80
2022-12-11T19:03:16.317Z,74.63
2022-12-11T19:05:44.596Z,74.69
2022-12-11T19:08:14.077Z,74.65
2022-12-11T19:10:47.450Z,74.60
2022-12-11T19:13:15.702Z,74.54
2022-12-11T19:15:44.800Z,74.54
2022-12-11T19:18:14.670Z,75.09
2022-12-11T19:20:49.454Z,75.12
2022-12-11T19:23:23.252Z,75.14
2022-12-11T19:25:52.157Z,75.00
2022-12-11T19:28:20.359Z,75.31
2022-12-11T19:30:52.597Z,75.22
2022-12-11T19:33:20.924Z,75.10
2022-12-11T19:35:49.130Z,74.95
2022-12-11T19:38:17.311Z,75.45
2022-12-11T19:40:47.360Z,75.36
2022-12-11T19:43:15.673Z,75.17
2022-12-11T19:45:46.041Z,75.21
2022-12-11T19:48:17.509Z,74.84
2022-12-11T19:50:51.201Z,75.04
2022-12-11T19:53:19.480Z,75.19
2022-12-11T19:55:52.323Z,75.18
2022-12-11T19:58:23.123Z,75.00
2022-12-11T20:00:51.397Z,75.11
2022-12-11T20:03:45.285Z,75.05
2022-12-11T20:06:13.928Z,75.07
2022-12-11T20:08:45.178Z,75.24
2022-12-11T20:11:18.692Z,75.19
2022-12-11T20:13:48.401Z,75.08
2022-12-11T20:16:28.831Z,75.14
2022-12-11T20:19:09.165Z,74.96
2022-12-11T20:21:37.480Z,75.20
2022-12-11T20:24:05.948Z,74.89
2022-12-11T20:26:36.545Z,74.89
2022-12-11T20:29:08.155Z,74.96
2022-12-11T20:32:04.958Z,75.17
2022-12-11T20:34:52.463Z,75.22
2022-12-11T20:37:20.694Z,75.01
2022-12-11T20:39:51.276Z,74.72
2022-12-11T20:42:57.526Z,74.99
2022-12-11T20:45:27.362Z,74.77
2022-12-11T20:47:56.912Z,75.25
2022-12-11T20:50:28.301Z,74.75
2022-12-11T20:52:56.846Z,75.04
2022-12-11T20:55:26.504Z,75.02
2022-12-11T21:01:29.255Z,75.25
2022-12-11T21:09:09.773Z,75.03
2022-12-11T21:11:57.594Z,75.05
2022-12-11T21:14:29.283Z,74.81
2022-12-11T21:16:58.250Z,74.86
2022-12-11T21:19:27.406Z,74.88
2022-12-11T21:21:56.396Z,74.87
2022-12-11T21:24:27.547Z,74.60
2022-12-11T21:26:59.196Z,74.76
2022-12-11T21:29:29.547Z,74.86
2022-12-11T21:31:58.189Z,74.88
2022-12-11T21:34:27.019Z,74.95
2022-12-11T21:36:57.505Z,74.82
2022-12-11T21:39:28.299Z,75.04
2022-12-11T21:41:58.218Z,75.03
2022-12-11T21:47:14.836Z,74.97
2022-12-11T21:49:46.161Z,75.03
2022-12-11T21:52:17.108Z,74.70
2022-12-11T21:54:45.467Z,74.82
2022-12-11T21:57:13.696Z,74.85
2022-12-11T21:59:47.294Z,74.89
2022-12-11T22:02:15.661Z,74.76
2022-12-11T22:04:43.872Z,74.75
2022-12-11T22:07:12.012Z,75.03
2022-12-11T22:09:40.224Z,74.93
2022-12-11T22:12:10.072Z,74.70
2022-12-11T22:14:38.260Z,74.75
2022-12-11T22:17:11.215Z,74.98
2022-12-11T22:19:39.361Z,74.78
2022-12-11T22:22:08.573Z,75.00
2022-12-11T22:24:42.883Z,75.07
2022-12-11T22:27:12.038Z,74.86
2022-12-11T22:29:43.202Z,74.83
2022-12-11T22:32:14.555Z,74.93
2022-12-11T22:34:42.754Z,74.92
2022-12-11T22:37:13.605Z,74.85
2022-12-11T22:39:47.020Z,74.96
2022-12-11T22:42:21.947Z,75.01
2022-12-11T22:44:53.145Z,75.00
2022-12-11T22:47:21.464Z,75.02
2022-12-11T22:49:50.267Z,74.65
2022-12-11T22:52:19.655Z,75.02
2022-12-11T22:54:51.666Z,74.84
2022-12-11T22:57:22.896Z,74.74
2022-12-11T22:59:56.724Z,74.87
2022-12-11T23:02:27.526Z,74.92
2022-12-11T23:04:55.859Z,74.81
2022-12-11T23:07:26.659Z,74.93
2022-12-11T23:10:32.509Z,74.76
2022-12-11T23:13:05.455Z,74.87
2022-12-11T23:15:34.852Z,74.64
2022-12-11T23:18:10.979Z,74.80
2022-12-11T23:20:40.696Z,74.93
2022-12-11T23:23:12.796Z,74.78
2022-12-11T23:25:43.568Z,74.67
2022-12-11T23:28:28.470Z,74.52
